Time;durP1;ratioP1;P1;durP2;ratioP2;P2;SDS_P1;SDS_P2;PMS_P1;PMS_P2;Temp;Humidity;BMP_temperature;BMP_pressure;BME280_temperature;BME280_humidity;BME280_pressure;Samples;Min_cycle;Max_cycle;Signal;HPM_P1;HPM_P2
2021/01/25 00:00:09;;;;;;;;;;;27.40;92.10;;;;;;4994277;28;20256;-83
2021/01/25 00:02:36;;;;;;;;;;;27.50;92.10;;;;;;4993397;28;20005;-80
2021/01/25 00:05:04;;;;;;;;;;;27.50;91.70;;;;;;4994115;28;19918;-81
2021/01/25 00:07:31;;;;;;;;;;;27.50;91.60;;;;;;5009187;28;19921;-81
2021/01/25 00:09:59;;;;;;;;;;;27.50;91.60;;;;;;5007414;28;19916;-80
2021/01/25 00:12:26;;;;;;;;;;;27.50;91.70;;;;;;4993289;28;19913;-81
2021/01/25 00:14:53;;;;;;;;;;;27.50;91.70;;;;;;4993970;28;20384;-79
2021/01/25 00:17:20;;;;;;;;;;;27.60;91.50;;;;;;4993160;28;19913;-79
2021/01/25 00:19:47;;;;;;;;;;;27.60;91.50;;;;;;4993239;28;20349;-81
2021/01/25 00:22:13;;;;;;;;;;;27.60;91.60;;;;;;4993105;28;20340;-80
2021/01/25 00:24:40;;;;;;;;;;;27.60;91.60;;;;;;4976191;28;19916;-80
2021/01/25 00:27:07;;;;;;;;;;;27.60;91.60;;;;;;4992675;28;19914;-81
2021/01/25 00:29:33;;;;;;;;;;;27.60;91.60;;;;;;4992359;28;19910;-80
2021/01/25 00:32:00;;;;;;;;;;;27.80;91.30;;;;;;5005140;28;19964;-80
2021/01/25 00:34:27;;;;;;;;;;;27.90;91.30;;;;;;4993460;28;20297;-83
2021/01/25 00:36:54;;;;;;;;;;;28.00;91.20;;;;;;4992261;28;19909;-79
2021/01/25 00:39:20;;;;;;;;;;;28.00;90.90;;;;;;4992417;28;19914;-81
2021/01/25 00:41:47;;;;;;;;;;;27.90;91.20;;;;;;4992210;28;20253;-81
2021/01/25 00:44:14;;;;;;;;;;;27.80;91.60;;;;;;4993306;28;19916;-81
2021/01/25 00:46:41;;;;;;;;;;;27.80;91.40;;;;;;4992607;28;20253;-81
2021/01/25 00:49:08;;;;;;;;;;;28.00;91.40;;;;;;4992385;28;19909;-79
2021/01/25 00:51:34;;;;;;;;;;;28.10;91.00;;;;;;4993153;28;20019;-78
2021/01/25 00:54:01;;;;;;;;;;;28.10;90.90;;;;;;4992869;28;19929;-81
2021/01/25 00:56:28;;;;;;;;;;;28.30;90.90;;;;;;4992626;28;19917;-79
2021/01/25 00:58:54;;;;;;;;;;;28.40;90.50;;;;;;4992665;28;19910;-79
2021/01/25 01:01:21;;;;;;;;;;;28.70;90.40;;;;;;4991983;28;19926;-80
2021/01/25 01:03:48;;;;;;;;;;;28.80;90.00;;;;;;4992247;28;19913;-80
2021/01/25 01:06:14;;;;;;;;;;;29.30;89.60;;;;;;4991945;28;19918;-79
2021/01/25 01:08:42;;;;;;;;;;;29.80;88.00;;;;;;5007276;28;19989;-81
2021/01/25 01:11:09;;;;;;;;;;;30.20;86.30;;;;;;5005262;28;19972;-78
2021/01/25 01:13:35;;;;;;;;;;;30.40;85.30;;;;;;4971833;28;20427;-79
2021/01/25 01:16:02;;;;;;;;;;;30.50;84.60;;;;;;4990585;28;19914;-81
2021/01/25 01:18:28;;;;;;;;;;;30.40;84.10;;;;;;4991612;28;19909;-80
2021/01/25 01:20:56;;;;;;;;;;;30.50;84.00;;;;;;5006988;28;19925;-78
2021/01/25 01:23:23;;;;;;;;;;;30.50;82.70;;;;;;5010300;28;19932;-80
2021/01/25 01:25:49;;;;;;;;;;;30.70;82.70;;;;;;4995517;28;19934;-78
2021/01/25 01:28:16;;;;;;;;;;;30.70;82.10;;;;;;4992281;28;20276;-80
2021/01/25 01:30:43;;;;;;;;;;;31.10;79.30;;;;;;4974999;28;20399;-84
2021/01/25 01:33:09;;;;;;;;;;;31.00;80.80;;;;;;4991393;28;19920;-81
2021/01/25 01:35:36;;;;;;;;;;;30.50;81.10;;;;;;4992457;28;19925;-79
2021/01/25 01:38:03;;;;;;;;;;;30.30;80.70;;;;;;4991474;28;19914;-79
2021/01/25 01:40:29;;;;;;;;;;;30.50;81.90;;;;;;4984593;28;20005;-79
2021/01/25 01:42:56;;;;;;;;;;;31.20;79.20;;;;;;4994184;28;19944;-80
2021/01/25 01:45:23;;;;;;;;;;;31.00;79.70;;;;;;4995965;28;19936;-78
2021/01/25 01:47:49;;;;;;;;;;;31.20;80.10;;;;;;4978872;28;20325;-83
2021/01/25 01:50:16;;;;;;;;;;;31.70;78.60;;;;;;4962524;28;19918;-80
2021/01/25 01:52:44;;;;;;;;;;;31.30;78.10;;;;;;4993857;28;19926;-80
2021/01/25 01:55:11;;;;;;;;;;;31.00;79.70;;;;;;4995660;28;20435;-83
2021/01/25 01:57:38;;;;;;;;;;;30.60;82.40;;;;;;4992345;28;19937;-79
2021/01/25 02:00:05;;;;;;;;;;;30.70;81.70;;;;;;4995763;28;19914;-86
2021/01/25 02:02:32;;;;;;;;;;;30.40;83.20;;;;;;4994539;28;19914;-83
2021/01/25 02:04:59;;;;;;;;;;;30.10;84.00;;;;;;4995734;28;19921;-77
2021/01/25 02:07:29;;;;;;;;;;;30.00;85.70;;;;;;4996616;28;20009;-84
2021/01/25 02:09:57;;;;;;;;;;;29.80;85.80;;;;;;4986778;28;19989;-79
2021/01/25 02:12:23;;;;;;;;;;;29.80;85.20;;;;;;4987222;28;20372;-84
2021/01/25 02:14:50;;;;;;;;;;;29.70;86.10;;;;;;4995661;28;20312;-82
2021/01/25 02:17:17;;;;;;;;;;;29.70;85.70;;;;;;4978038;28;19922;-78
2021/01/25 02:19:44;;;;;;;;;;;29.30;85.70;;;;;;4995452;28;19910;-84
2021/01/25 02:22:19;;;;;;;;;;;29.20;88.00;;;;;;4977761;28;19918;-85
2021/01/25 02:24:53;;;;;;;;;;;29.40;87.40;;;;;;4995640;28;19914;-80
2021/01/25 02:27:29;;;;;;;;;;;29.40;87.50;;;;;;4995490;28;19920;-83
2021/01/25 02:29:56;;;;;;;;;;;29.30;87.30;;;;;;4995775;28;19933;-86
2021/01/25 02:32:23;;;;;;;;;;;29.30;88.40;;;;;;4995624;28;19921;-82
2021/01/25 02:34:49;;;;;;;;;;;29.40;86.80;;;;;;4995060;28;19976;-83
2021/01/25 02:37:16;;;;;;;;;;;29.20;87.50;;;;;;4992416;28;19924;-84
2021/01/25 02:39:44;;;;;;;;;;;29.10;87.70;;;;;;4994081;28;19914;-83
2021/01/25 02:42:10;;;;;;;;;;;29.30;87.60;;;;;;5008763;28;20266;-86
2021/01/25 02:44:38;;;;;;;;;;;29.20;87.10;;;;;;5006574;28;19917;-86
2021/01/25 02:47:05;;;;;;;;;;;29.10;88.40;;;;;;5006249;28;19949;-82
2021/01/25 02:49:32;;;;;;;;;;;29.10;86.90;;;;;;5007130;28;19956;-78
2021/01/25 02:51:59;;;;;;;;;;;29.00;88.20;;;;;;5011168;28;19913;-82
2021/01/25 02:54:25;;;;;;;;;;;28.90;87.80;;;;;;5004662;28;20393;-83
2021/01/25 02:56:52;;;;;;;;;;;28.90;87.70;;;;;;4996632;28;20051;-82
2021/01/25 02:59:21;;;;;;;;;;;28.80;88.30;;;;;;4996220;28;19917;-83
2021/01/25 03:01:48;;;;;;;;;;;28.80;88.60;;;;;;4995486;28;19910;-81
2021/01/25 03:04:14;;;;;;;;;;;28.70;88.40;;;;;;5002616;28;20272;-84
2021/01/25 03:06:42;;;;;;;;;;;28.80;88.90;;;;;;4989592;28;20359;-83
2021/01/25 03:09:09;;;;;;;;;;;28.70;89.80;;;;;;4991544;28;19914;-81
2021/01/25 03:11:38;;;;;;;;;;;28.70;89.30;;;;;;4994301;28;19914;-78
2021/01/25 03:14:08;;;;;;;;;;;28.70;88.80;;;;;;4993768;28;19924;-78
2021/01/25 03:16:35;;;;;;;;;;;28.80;89.20;;;;;;4993617;28;20335;-79
2021/01/25 03:19:02;;;;;;;;;;;28.70;89.40;;;;;;4992902;28;19926;-78
2021/01/25 03:21:29;;;;;;;;;;;28.60;90.10;;;;;;4992943;28;20045;-78
2021/01/25 03:23:55;;;;;;;;;;;28.50;89.70;;;;;;4993814;28;20068;-78
2021/01/25 03:26:22;;;;;;;;;;;28.50;90.30;;;;;;4994499;28;19910;-79
2021/01/25 03:28:49;;;;;;;;;;;28.50;89.70;;;;;;4988380;28;20005;-80
2021/01/25 03:31:15;;;;;;;;;;;28.50;88.80;;;;;;4992645;28;20272;-79
2021/01/25 03:33:42;;;;;;;;;;;28.70;89.30;;;;;;4984013;28;19940;-79
2021/01/25 03:36:09;;;;;;;;;;;28.80;88.70;;;;;;4992961;28;19917;-79
2021/01/25 03:38:35;;;;;;;;;;;28.70;88.50;;;;;;4993003;28;19920;-78
2021/01/25 03:41:02;;;;;;;;;;;28.70;87.80;;;;;;4993796;28;19925;-78
2021/01/25 03:43:29;;;;;;;;;;;28.80;88.10;;;;;;4995031;28;20025;-80
2021/01/25 03:45:55;;;;;;;;;;;28.80;86.80;;;;;;4989811;28;19915;-79
2021/01/25 03:48:22;;;;;;;;;;;28.90;87.30;;;;;;4986285;28;20372;-78
2021/01/25 03:50:49;;;;;;;;;;;29.00;86.30;;;;;;4989857;28;20060;-79
2021/01/25 03:53:16;;;;;;;;;;;28.90;86.30;;;;;;5006459;28;19937;-78
2021/01/25 03:55:45;;;;;;;;;;;28.90;86.40;;;;;;5014662;28;19926;-78
2021/01/25 03:58:11;;;;;;;;;;;28.90;84.60;;;;;;5015892;28;19917;-79
2021/01/25 04:00:38;;;;;;;;;;;29.00;85.50;;;;;;5016515;28;19909;-77
2021/01/25 04:03:05;;;;;;;;;;;29.10;85.20;;;;;;4988230;28;19929;-79
2021/01/25 04:05:32;;;;;;;;;;;29.10;85.20;;;;;;4998755;28;19956;-79
2021/01/25 04:07:59;;;;;;;;;;;29.00;84.40;;;;;;4998719;28;20020;-77
2021/01/25 04:10:25;;;;;;;;;;;29.10;85.10;;;;;;4996144;28;20313;-78
2021/01/25 04:12:52;;;;;;;;;;;29.20;84.40;;;;;;4986007;28;19949;-77
2021/01/25 04:15:19;;;;;;;;;;;29.30;82.00;;;;;;4977054;28;20238;-79
2021/01/25 04:17:45;;;;;;;;;;;29.20;82.50;;;;;;4974519;28;19918;-79
2021/01/25 04:20:12;;;;;;;;;;;29.20;82.10;;;;;;4976835;28;19922;-79
2021/01/25 04:22:39;;;;;;;;;;;29.10;81.70;;;;;;4975140;28;19917;-79
2021/01/25 04:25:06;;;;;;;;;;;29.10;81.20;;;;;;4992657;28;19933;-79
2021/01/25 04:27:33;;;;;;;;;;;28.90;82.50;;;;;;4992676;28;19914;-79
2021/01/25 04:29:59;;;;;;;;;;;29.00;81.90;;;;;;4992949;28;19921;-79
2021/01/25 04:32:26;;;;;;;;;;;29.00;80.80;;;;;;4992200;28;19914;-79
2021/01/25 04:34:53;;;;;;;;;;;29.00;81.80;;;;;;4992067;28;20033;-78
2021/01/25 04:37:20;;;;;;;;;;;29.00;80.90;;;;;;4974395;28;19993;-79
2021/01/25 04:39:47;;;;;;;;;;;29.00;80.70;;;;;;4992754;28;19914;-80
2021/01/25 04:42:15;;;;;;;;;;;29.00;80.40;;;;;;4994227;28;19910;-78
2021/01/25 04:44:45;;;;;;;;;;;29.10;79.90;;;;;;4991635;28;19914;-81
2021/01/25 04:47:13;;;;;;;;;;;29.00;80.50;;;;;;4979458;28;19921;-80
2021/01/25 04:49:41;;;;;;;;;;;28.90;79.70;;;;;;4992848;28;19917;-81
2021/01/25 04:52:10;;;;;;;;;;;28.90;80.10;;;;;;4992561;28;20246;-79
2021/01/25 04:54:37;;;;;;;;;;;28.80;80.60;;;;;;4989904;28;19922;-80
2021/01/25 04:57:04;;;;;;;;;;;28.90;81.30;;;;;;4993149;28;19917;-80
2021/01/25 04:59:31;;;;;;;;;;;28.80;80.40;;;;;;4976534;28;19957;-80
2021/01/25 05:01:58;;;;;;;;;;;28.80;80.70;;;;;;4974059;28;19917;-79
2021/01/25 05:04:24;;;;;;;;;;;28.80;80.40;;;;;;4993519;28;20016;-80
2021/01/25 05:06:51;;;;;;;;;;;28.90;81.00;;;;;;4992590;28;20009;-80
2021/01/25 05:09:18;;;;;;;;;;;28.70;81.30;;;;;;4989697;28;19909;-81
2021/01/25 05:11:44;;;;;;;;;;;28.80;80.60;;;;;;4993282;28;20276;-79
2021/01/25 05:14:11;;;;;;;;;;;28.70;81.30;;;;;;4981734;28;19926;-80
2021/01/25 05:16:38;;;;;;;;;;;28.80;81.30;;;;;;4992755;28;20001;-80
2021/01/25 05:19:05;;;;;;;;;;;28.70;80.80;;;;;;4993381;28;19922;-80
2021/01/25 05:21:44;;;;;;;;;;;28.70;81.10;;;;;;4993131;28;20001;-80
2021/01/25 05:24:12;;;;;;;;;;;28.70;81.10;;;;;;4992303;28;19917;-79
2021/01/25 05:27:01;;;;;;;;;;;28.60;81.10;;;;;;4993233;28;19960;-80
2021/01/25 05:29:28;;;;;;;;;;;28.60;80.60;;;;;;4993174;28;19936;-79
2021/01/25 05:31:55;;;;;;;;;;;28.50;80.50;;;;;;4992631;28;20257;-78
2021/01/25 05:34:22;;;;;;;;;;;28.40;81.90;;;;;;4991960;28;19986;-80
2021/01/25 05:36:49;;;;;;;;;;;28.40;80.90;;;;;;4992356;28;20004;-79
2021/01/25 05:39:19;;;;;;;;;;;28.40;81.10;;;;;;4975550;28;20396;-80
2021/01/25 05:41:55;;;;;;;;;;;28.40;81.10;;;;;;4998597;28;19910;-78
2021/01/25 05:44:22;;;;;;;;;;;28.40;82.60;;;;;;4991805;28;19997;-78
2021/01/25 05:46:49;;;;;;;;;;;28.40;82.70;;;;;;4992569;28;19910;-80
2021/01/25 05:49:26;;;;;;;;;;;28.40;82.40;;;;;;4991744;28;20252;-80
2021/01/25 05:51:54;;;;;;;;;;;28.30;81.70;;;;;;4984336;28;19917;-80
2021/01/25 05:54:24;;;;;;;;;;;28.30;82.60;;;;;;4990224;28;20017;-79
2021/01/25 05:56:52;;;;;;;;;;;28.20;82.90;;;;;;4990912;28;19924;-80
2021/01/25 05:59:19;;;;;;;;;;;28.10;83.70;;;;;;4983948;28;19958;-83
2021/01/25 06:01:49;;;;;;;;;;;28.10;83.50;;;;;;4973187;28;19913;-79
2021/01/25 06:04:22;;;;;;;;;;;28.00;83.70;;;;;;4988326;28;20443;-79
2021/01/25 06:06:57;;;;;;;;;;;28.10;83.30;;;;;;4990797;28;20369;-80
2021/01/25 06:09:30;;;;;;;;;;;27.90;83.40;;;;;;4990037;28;19960;-80
2021/01/25 06:12:03;;;;;;;;;;;28.00;83.60;;;;;;4990263;28;19910;-79
2021/01/25 06:14:35;;;;;;;;;;;28.00;83.00;;;;;;4990285;28;19929;-80
2021/01/25 06:17:02;;;;;;;;;;;27.90;84.30;;;;;;4990566;28;19914;-79
2021/01/25 06:19:30;;;;;;;;;;;27.80;83.80;;;;;;4971647;28;19914;-79
2021/01/25 06:21:57;;;;;;;;;;;27.60;85.60;;;;;;4970769;28;19910;-79
2021/01/25 06:24:25;;;;;;;;;;;27.70;86.40;;;;;;4986260;28;19922;-78
2021/01/25 06:26:53;;;;;;;;;;;27.70;86.30;;;;;;4989394;28;19914;-80
2021/01/25 06:29:20;;;;;;;;;;;27.60;86.30;;;;;;4993966;28;19925;-80
2021/01/25 06:31:55;;;;;;;;;;;27.60;87.30;;;;;;4993692;28;19926;-81
2021/01/25 06:34:22;;;;;;;;;;;27.50;87.40;;;;;;4994691;28;20262;-82
2021/01/25 06:36:52;;;;;;;;;;;27.60;87.00;;;;;;4994206;28;19951;-78
2021/01/25 06:39:29;;;;;;;;;;;27.50;87.00;;;;;;4978976;28;20284;-81
2021/01/25 06:42:05;;;;;;;;;;;27.50;87.50;;;;;;4994857;28;20383;-79
2021/01/25 06:44:35;;;;;;;;;;;27.40;88.20;;;;;;4994381;28;19972;-80
2021/01/25 06:47:03;;;;;;;;;;;27.30;88.00;;;;;;4983630;28;20567;-78
2021/01/25 06:49:33;;;;;;;;;;;27.30;88.50;;;;;;4992609;28;19918;-79
2021/01/25 06:52:00;;;;;;;;;;;27.30;88.30;;;;;;4992906;28;19910;-79
2021/01/25 06:54:27;;;;;;;;;;;27.20;88.60;;;;;;4992096;28;19929;-79
2021/01/25 06:56:54;;;;;;;;;;;27.10;89.10;;;;;;4993325;28;19957;-78
2021/01/25 06:59:24;;;;;;;;;;;27.00;89.60;;;;;;4993593;28;20426;-77
2021/01/25 07:01:51;;;;;;;;;;;27.10;89.50;;;;;;4992728;28;19922;-84
2021/01/25 07:04:19;;;;;;;;;;;27.00;89.70;;;;;;4993454;28;19917;-80
2021/01/25 07:06:50;;;;;;;;;;;27.00;90.30;;;;;;4992451;28;20367;-77
2021/01/25 07:09:29;;;;;;;;;;;26.90;90.30;;;;;;4983703;28;19937;-77
2021/01/25 07:12:00;;;;;;;;;;;26.90;90.60;;;;;;4989926;28;19926;-77
2021/01/25 07:14:28;;;;;;;;;;;27.00;90.50;;;;;;4992210;28;19929;-79
2021/01/25 07:16:56;;;;;;;;;;;27.00;90.70;;;;;;4987621;28;19928;-78
2021/01/25 07:19:23;;;;;;;;;;;27.00;90.40;;;;;;4990211;28;19973;-78
2021/01/25 07:21:53;;;;;;;;;;;26.90;90.80;;;;;;5001770;28;20356;-78
2021/01/25 07:24:22;;;;;;;;;;;26.80;90.80;;;;;;5000241;28;19921;-75
2021/01/25 07:26:55;;;;;;;;;;;26.70;91.20;;;;;;4991502;28;19928;-78
2021/01/25 07:29:22;;;;;;;;;;;26.70;91.30;;;;;;4990016;28;19914;-78
2021/01/25 07:31:49;;;;;;;;;;;26.60;91.80;;;;;;4991448;28;19968;-78
2021/01/25 07:34:16;;;;;;;;;;;26.60;92.30;;;;;;4991274;28;19940;-76
2021/01/25 07:36:43;;;;;;;;;;;26.50;91.90;;;;;;4991797;28;19913;-77
2021/01/25 07:39:13;;;;;;;;;;;26.50;92.40;;;;;;4991835;28;20004;-78
2021/01/25 07:41:40;;;;;;;;;;;26.40;92.50;;;;;;4991977;28;19910;-77
2021/01/25 07:44:08;;;;;;;;;;;26.40;92.70;;;;;;4992500;28;20371;-78
2021/01/25 07:46:36;;;;;;;;;;;26.30;93.00;;;;;;4993050;28;20372;-78
2021/01/25 07:49:03;;;;;;;;;;;26.30;93.00;;;;;;4991080;28;20017;-77
2021/01/25 07:51:32;;;;;;;;;;;26.20;93.10;;;;;;4992270;28;19913;-77
2021/01/25 07:53:59;;;;;;;;;;;26.20;93.40;;;;;;4992188;28;20367;-77
2021/01/25 07:56:26;;;;;;;;;;;26.10;93.70;;;;;;4992808;28;19910;-77
2021/01/25 07:59:04;;;;;;;;;;;26.10;93.60;;;;;;4992147;28;20385;-77
2021/01/25 08:01:34;;;;;;;;;;;26.20;93.60;;;;;;4992393;28;19976;-77
2021/01/25 08:04:01;;;;;;;;;;;26.20;93.50;;;;;;4992393;28;19926;-77
2021/01/25 08:06:34;;;;;;;;;;;26.10;93.90;;;;;;4994195;28;19914;-78
2021/01/25 08:09:08;;;;;;;;;;;26.10;93.80;;;;;;4994449;28;19920;-77
2021/01/25 08:11:35;;;;;;;;;;;26.00;94.10;;;;;;4994601;28;20368;-76
2021/01/25 08:14:07;;;;;;;;;;;26.00;93.90;;;;;;4996106;28;19936;-76
2021/01/25 08:16:39;;;;;;;;;;;25.90;94.30;;;;;;4999893;28;19910;-76
2021/01/25 08:19:13;;;;;;;;;;;25.90;94.40;;;;;;4995417;28;20268;-76
2021/01/25 08:21:43;;;;;;;;;;;25.80;94.70;;;;;;4994249;28;19954;-77
2021/01/25 08:24:11;;;;;;;;;;;25.70;94.80;;;;;;4993119;28;20068;-77
2021/01/25 08:26:37;;;;;;;;;;;25.70;95.30;;;;;;4984000;28;19914;-76
2021/01/25 08:29:13;;;;;;;;;;;25.60;95.60;;;;;;4993162;28;19914;-78
2021/01/25 08:31:41;;;;;;;;;;;25.60;95.90;;;;;;4994491;28;19940;-78
2021/01/25 08:34:17;;;;;;;;;;;25.40;96.50;;;;;;4993486;28;19929;-76
2021/01/25 08:36:44;;;;;;;;;;;25.40;96.60;;;;;;4994540;28;19910;-78
2021/01/25 08:39:15;;;;;;;;;;;25.30;96.90;;;;;;4994181;28;19936;-79
2021/01/25 08:41:55;;;;;;;;;;;25.30;97.00;;;;;;4994032;28;20281;-76
2021/01/25 08:44:24;;;;;;;;;;;25.20;97.30;;;;;;4992800;28;20552;-76
2021/01/25 08:46:52;;;;;;;;;;;25.20;97.60;;;;;;4993862;28;20225;-78
2021/01/25 08:49:23;;;;;;;;;;;25.10;97.90;;;;;;4987926;28;19914;-76
2021/01/25 08:51:57;;;;;;;;;;;25.00;97.90;;;;;;4982615;28;19910;-76
2021/01/25 08:54:26;;;;;;;;;;;25.00;98.10;;;;;;4990819;28;20005;-77
2021/01/25 08:56:53;;;;;;;;;;;24.90;98.20;;;;;;4992918;28;20307;-76
2021/01/25 08:59:30;;;;;;;;;;;24.90;98.20;;;;;;4992701;28;19953;-75
2021/01/25 09:01:57;;;;;;;;;;;24.90;98.50;;;;;;4988243;28;19920;-76
2021/01/25 09:04:24;;;;;;;;;;;24.80;99.00;;;;;;4976389;28;19910;-77
2021/01/25 09:06:53;;;;;;;;;;;24.80;99.20;;;;;;4983908;28;20399;-80
2021/01/25 09:09:20;;;;;;;;;;;24.80;99.50;;;;;;4992266;28;19925;-77
2021/01/25 09:11:47;;;;;;;;;;;24.80;99.60;;;;;;4986367;28;19918;-76
2021/01/25 09:14:17;;;;;;;;;;;24.70;99.80;;;;;;4980821;28;20000;-78
2021/01/25 09:16:44;;;;;;;;;;;24.60;99.90;;;;;;4992202;28;19917;-79
2021/01/25 09:19:12;;;;;;;;;;;24.60;99.90;;;;;;4989411;28;19917;-78
2021/01/25 09:21:38;;;;;;;;;;;24.50;99.90;;;;;;4991237;28;19914;-79
2021/01/25 09:24:05;;;;;;;;;;;24.50;99.90;;;;;;4991031;28;19910;-77
2021/01/25 09:26:32;;;;;;;;;;;24.50;99.90;;;;;;4992276;28;19989;-80
2021/01/25 09:28:59;;;;;;;;;;;24.50;99.90;;;;;;4992294;28;20341;-77
2021/01/25 09:31:28;;;;;;;;;;;24.40;99.90;;;;;;4985588;28;19910;-80
2021/01/25 09:33:55;;;;;;;;;;;24.40;99.90;;;;;;4990678;28;20025;-78
2021/01/25 09:36:22;;;;;;;;;;;24.40;99.90;;;;;;4985989;28;20232;-83
2021/01/25 09:38:49;;;;;;;;;;;24.40;99.90;;;;;;4991207;28;19921;-78
2021/01/25 09:41:16;;;;;;;;;;;24.40;99.90;;;;;;4992846;28;19914;-78
2021/01/25 09:43:43;;;;;;;;;;;24.40;99.90;;;;;;4991991;28;19922;-78
2021/01/25 09:46:09;;;;;;;;;;;24.40;99.90;;;;;;4992438;28;19964;-78
2021/01/25 09:48:36;;;;;;;;;;;24.40;99.90;;;;;;4991359;28;19918;-78
2021/01/25 09:51:03;;;;;;;;;;;24.30;99.90;;;;;;4991768;28;19986;-78
2021/01/25 09:53:29;;;;;;;;;;;24.30;99.90;;;;;;4975003;28;19925;-79
2021/01/25 09:55:57;;;;;;;;;;;24.30;99.90;;;;;;4992643;28;19980;-77
2021/01/25 09:58:24;;;;;;;;;;;24.30;99.90;;;;;;4992710;28;19909;-78
2021/01/25 10:00:51;;;;;;;;;;;24.30;99.90;;;;;;4992665;28;19937;-78
2021/01/25 10:03:18;;;;;;;;;;;24.30;99.90;;;;;;4995131;28;19936;-80
2021/01/25 10:05:45;;;;;;;;;;;24.30;99.90;;;;;;4991407;28;19921;-80
2021/01/25 10:08:14;;;;;;;;;;;24.30;99.90;;;;;;4987243;28;20041;-79
2021/01/25 10:10:41;;;;;;;;;;;24.20;99.90;;;;;;4979035;28;19914;-80
2021/01/25 10:13:08;;;;;;;;;;;24.20;99.90;;;;;;4991000;28;20376;-78
2021/01/25 10:15:38;;;;;;;;;;;24.20;99.90;;;;;;4999262;28;19921;-78
2021/01/25 10:18:04;;;;;;;;;;;24.20;99.90;;;;;;4990770;28;19914;-80
2021/01/25 10:20:31;;;;;;;;;;;24.20;99.90;;;;;;5001710;28;19922;-79
2021/01/25 10:22:58;;;;;;;;;;;24.20;99.90;;;;;;5004824;28;19991;-78
2021/01/25 10:25:25;;;;;;;;;;;24.20;99.90;;;;;;5000894;28;20255;-78
2021/01/25 10:27:51;;;;;;;;;;;24.10;99.90;;;;;;5004148;28;19989;-79
2021/01/25 10:30:21;;;;;;;;;;;24.10;99.90;;;;;;5006080;28;19908;-79
2021/01/25 10:32:48;;;;;;;;;;;24.10;99.90;;;;;;5000816;28;19918;-77
2021/01/25 10:35:21;;;;;;;;;;;24.10;99.90;;;;;;5003633;28;19925;-77
2021/01/25 10:37:48;;;;;;;;;;;24.10;99.90;;;;;;5000129;28;19973;-77
2021/01/25 10:40:15;;;;;;;;;;;24.00;99.90;;;;;;5001562;28;19985;-78
2021/01/25 10:42:42;;;;;;;;;;;24.00;99.90;;;;;;4992344;28;19914;-79
2021/01/25 10:45:12;;;;;;;;;;;24.00;99.90;;;;;;4993020;28;19921;-77
2021/01/25 10:47:39;;;;;;;;;;;24.00;99.90;;;;;;4993326;28;19910;-77
2021/01/25 10:50:11;;;;;;;;;;;24.00;99.90;;;;;;4994614;28;20516;-77
2021/01/25 10:52:38;;;;;;;;;;;24.00;99.90;;;;;;4994023;28;19968;-77
2021/01/25 10:55:05;;;;;;;;;;;24.00;99.90;;;;;;4993682;28;19922;-78
2021/01/25 10:57:33;;;;;;;;;;;23.90;99.90;;;;;;4985598;28;20376;-78
2021/01/25 11:00:07;;;;;;;;;;;23.90;99.90;;;;;;4966094;28;19917;-77
2021/01/25 11:02:34;;;;;;;;;;;23.90;99.90;;;;;;4991876;28;19986;-79
2021/01/25 11:05:03;;;;;;;;;;;23.90;99.90;;;;;;4993036;28;19914;-77
2021/01/25 11:07:30;;;;;;;;;;;23.90;99.90;;;;;;4993619;28;20356;-80
2021/01/25 11:09:57;;;;;;;;;;;23.90;99.90;;;;;;4993447;28;19914;-82
2021/01/25 11:12:23;;;;;;;;;;;23.80;99.90;;;;;;4989667;28;19929;-79
2021/01/25 11:14:50;;;;;;;;;;;23.90;99.90;;;;;;4992121;28;19926;-77
2021/01/25 11:17:17;;;;;;;;;;;23.90;99.90;;;;;;4992766;28;19926;-76
2021/01/25 11:19:43;;;;;;;;;;;23.90;99.90;;;;;;4993175;28;19914;-78
2021/01/25 11:22:10;;;;;;;;;;;23.80;99.90;;;;;;4993390;28;19936;-77
2021/01/25 11:24:36;;;;;;;;;;;23.80;99.90;;;;;;4992772;28;20004;-78
2021/01/25 11:27:05;;;;;;;;;;;23.80;99.90;;;;;;4992549;28;19964;-77
2021/01/25 11:29:32;;;;;;;;;;;23.70;99.90;;;;;;4992407;28;19960;-81
2021/01/25 11:32:02;;;;;;;;;;;23.80;99.90;;;;;;4992367;28;20024;-79
2021/01/25 11:34:29;;;;;;;;;;;23.70;99.90;;;;;;4986547;28;20042;-76
2021/01/25 11:36:56;;;;;;;;;;;23.70;99.90;;;;;;4983401;28;19921;-77
2021/01/25 11:39:28;;;;;;;;;;;23.80;99.90;;;;;;4980587;28;20005;-79
2021/01/25 11:41:55;;;;;;;;;;;23.80;99.90;;;;;;4985305;28;19948;-75
2021/01/25 11:44:21;;;;;;;;;;;23.70;99.90;;;;;;4983610;28;19917;-76
2021/01/25 11:46:48;;;;;;;;;;;23.70;99.90;;;;;;4984529;28;19918;-78
2021/01/25 11:49:15;;;;;;;;;;;23.70;99.90;;;;;;4983231;28;20360;-81
2021/01/25 11:51:43;;;;;;;;;;;23.70;99.90;;;;;;4983745;28;19914;-78
2021/01/25 11:54:10;;;;;;;;;;;23.80;99.90;;;;;;4984098;28;20037;-79
2021/01/25 11:56:37;;;;;;;;;;;23.80;99.90;;;;;;4984080;28;19922;-77
2021/01/25 11:59:04;;;;;;;;;;;23.80;99.90;;;;;;4982791;28;19918;-76
2021/01/25 12:01:31;;;;;;;;;;;23.80;99.90;;;;;;4986577;28;20438;-75
2021/01/25 12:03:57;;;;;;;;;;;23.80;99.90;;;;;;4991548;28;19924;-76
2021/01/25 12:06:24;;;;;;;;;;;23.80;99.90;;;;;;4983734;28;19913;-79
2021/01/25 12:08:51;;;;;;;;;;;23.80;99.90;;;;;;4991066;28;19917;-75
2021/01/25 12:11:18;;;;;;;;;;;23.80;99.90;;;;;;4991859;28;19941;-79
2021/01/25 12:13:45;;;;;;;;;;;23.80;99.90;;;;;;4992120;28;20584;-77
2021/01/25 12:16:15;;;;;;;;;;;23.80;99.90;;;;;;4972615;28;19922;-77
2021/01/25 12:18:42;;;;;;;;;;;23.80;99.90;;;;;;4989113;28;19960;-77
2021/01/25 12:21:10;;;;;;;;;;;23.80;99.90;;;;;;4991283;28;20337;-79
2021/01/25 12:23:51;;;;;;;;;;;23.70;99.90;;;;;;4990708;28;19914;-79
2021/01/25 12:26:18;;;;;;;;;;;23.70;99.90;;;;;;4984778;28;20380;-79
2021/01/25 12:28:45;;;;;;;;;;;23.70;99.90;;;;;;4990394;28;19920;-78
2021/01/25 12:31:11;;;;;;;;;;;23.70;99.90;;;;;;4991206;28;19918;-76
2021/01/25 12:33:38;;;;;;;;;;;23.70;99.90;;;;;;4988372;28;20376;-77
2021/01/25 12:36:05;;;;;;;;;;;23.80;99.90;;;;;;4991751;28;20291;-78
2021/01/25 12:38:32;;;;;;;;;;;23.80;99.90;;;;;;4991444;28;19941;-79
2021/01/25 12:40:58;;;;;;;;;;;23.80;99.90;;;;;;4991104;28;19910;-77
2021/01/25 12:43:25;;;;;;;;;;;23.80;99.90;;;;;;4985925;28;19914;-76
2021/01/25 12:45:51;;;;;;;;;;;23.80;99.90;;;;;;4982826;28;19921;-78
2021/01/25 12:48:18;;;;;;;;;;;23.80;99.90;;;;;;4989851;28;19988;-81
2021/01/25 12:50:45;;;;;;;;;;;23.80;99.90;;;;;;4990135;28;20339;-80
2021/01/25 12:53:12;;;;;;;;;;;23.80;99.90;;;;;;4988822;28;19980;-80
2021/01/25 12:55:41;;;;;;;;;;;23.80;99.90;;;;;;4989821;28;19926;-79
2021/01/25 12:58:08;;;;;;;;;;;23.80;99.90;;;;;;4989590;28;19921;-78
2021/01/25 13:00:36;;;;;;;;;;;23.70;99.90;;;;;;4960547;28;20300;-78
2021/01/25 13:03:06;;;;;;;;;;;23.70;99.90;;;;;;4984269;28;20479;-78
2021/01/25 13:05:34;;;;;;;;;;;23.70;99.90;;;;;;4983945;28;19922;-79
2021/01/25 13:08:02;;;;;;;;;;;23.70;99.90;;;;;;4980358;28;19953;-79
2021/01/25 13:10:28;;;;;;;;;;;23.70;99.90;;;;;;4979565;28;19910;-78
2021/01/25 13:12:55;;;;;;;;;;;23.70;99.90;;;;;;4977313;28;20373;-76
2021/01/25 13:15:22;;;;;;;;;;;23.70;99.90;;;;;;4990513;28;19960;-79
2021/01/25 13:17:49;;;;;;;;;;;23.70;99.90;;;;;;4991118;28;19941;-78
2021/01/25 13:20:18;;;;;;;;;;;23.70;99.90;;;;;;4991313;28;20386;-78
2021/01/25 13:22:46;;;;;;;;;;;23.70;99.90;;;;;;4990982;28;20348;-78
2021/01/25 13:25:13;;;;;;;;;;;23.70;99.90;;;;;;4990326;28;20518;-78
2021/01/25 13:27:39;;;;;;;;;;;23.70;99.90;;;;;;4990998;28;19936;-78
2021/01/25 13:30:07;;;;;;;;;;;23.70;99.90;;;;;;4989769;28;20004;-77
2021/01/25 13:32:36;;;;;;;;;;;23.60;99.90;;;;;;4990831;28;19933;-80
2021/01/25 13:35:07;;;;;;;;;;;23.70;99.90;;;;;;4990469;28;19937;-80
2021/01/25 13:37:33;;;;;;;;;;;23.70;99.90;;;;;;4994905;28;20288;-80
2021/01/25 13:40:00;;;;;;;;;;;23.70;99.90;;;;;;4997846;28;19909;-78
2021/01/25 13:42:27;;;;;;;;;;;23.70;99.90;;;;;;4997549;28;20341;-78
2021/01/25 13:44:53;;;;;;;;;;;23.70;99.90;;;;;;4997670;28;19921;-79
2021/01/25 13:47:20;;;;;;;;;;;23.80;99.90;;;;;;4997884;28;19918;-79
2021/01/25 13:49:47;;;;;;;;;;;23.80;99.90;;;;;;4997708;28;19921;-80
2021/01/25 13:52:13;;;;;;;;;;;23.80;99.90;;;;;;4997226;28;19917;-77
2021/01/25 13:54:40;;;;;;;;;;;23.80;99.90;;;;;;4997527;28;19925;-78
2021/01/25 13:57:07;;;;;;;;;;;23.80;99.90;;;;;;4997611;28;19910;-78
2021/01/25 13:59:34;;;;;;;;;;;23.80;99.90;;;;;;4997867;28;19922;-77
2021/01/25 14:02:00;;;;;;;;;;;23.70;99.90;;;;;;4997758;28;19910;-79
2021/01/25 14:04:27;;;;;;;;;;;23.70;99.90;;;;;;4997226;28;20012;-78
2021/01/25 14:06:54;;;;;;;;;;;23.60;99.90;;;;;;4997488;28;19929;-78
2021/01/25 14:09:21;;;;;;;;;;;23.60;99.90;;;;;;4979475;28;20322;-77
2021/01/25 14:11:47;;;;;;;;;;;23.50;99.90;;;;;;5008754;28;19916;-78
2021/01/25 14:14:14;;;;;;;;;;;23.50;99.90;;;;;;4999825;28;19925;-78
2021/01/25 14:16:42;;;;;;;;;;;23.50;99.90;;;;;;4999107;28;19902;-76
2021/01/25 14:19:09;;;;;;;;;;;23.50;99.90;;;;;;4996051;28;19981;-80